sensor_id;sensor_type;location;lat;lon;timestamp;P1;durP1;ratioP1;P2;durP2;ratioP2
80891;SDS011;70343;51.530;5.050;2024-03-23T00:54:21;9.23;;;2.78;;
80891;SDS011;70343;51.530;5.050;2024-03-23T00:56:46;8.60;;;3.30;;
80891;SDS011;70343;51.530;5.050;2024-03-23T00:59:12;10.70;;;3.47;;
80891;SDS011;70343;51.530;5.050;2024-03-23T01:01:37;8.13;;;2.95;;
80891;SDS011;70343;51.530;5.050;2024-03-23T01:04:03;11.27;;;2.97;;
80891;SDS011;70343;51.530;5.050;2024-03-23T01:06:28;7.57;;;3.17;;
80891;SDS011;70343;51.530;5.050;2024-03-23T01:08:53;8.55;;;3.25;;
80891;SDS011;70343;51.530;5.050;2024-03-23T01:11:19;10.13;;;3.10;;
80891;SDS011;70343;51.530;5.050;2024-03-23T01:13:44;8.65;;;3.15;;
80891;SDS011;70343;51.530;5.050;2024-03-23T01:16:10;8.57;;;2.60;;
80891;SDS011;70343;51.530;5.050;2024-03-23T01:18:35;4.80;;;2.67;;
80891;SDS011;70343;51.530;5.050;2024-03-23T01:21:00;5.60;;;2.83;;
80891;SDS011;70343;51.530;5.050;2024-03-23T01:23:26;10.00;;;3.00;;
80891;SDS011;70343;51.530;5.050;2024-03-23T01:25:52;9.23;;;3.10;;
80891;SDS011;70343;51.530;5.050;2024-03-23T01:28:19;8.50;;;2.85;;
80891;SDS011;70343;51.530;5.050;2024-03-23T01:33:13;5.53;;;2.80;;
80891;SDS011;70343;51.530;5.050;2024-03-23T01:35:39;8.32;;;2.95;;
80891;SDS011;70343;51.530;5.050;2024-03-23T01:38:05;9.15;;;2.30;;
80891;SDS011;70343;51.530;5.050;2024-03-23T01:40:31;7.07;;;2.72;;
80891;SDS011;70343;51.530;5.050;2024-03-23T01:42:58;8.43;;;2.50;;
80891;SDS011;70343;51.530;5.050;2024-03-23T01:45:27;7.45;;;2.40;;
80891;SDS011;70343;51.530;5.050;2024-03-23T01:47:52;7.63;;;2.63;;
80891;SDS011;70343;51.530;5.050;2024-03-23T01:50:18;7.65;;;2.70;;
80891;SDS011;70343;51.530;5.050;2024-03-23T01:52:45;7.40;;;2.85;;
80891;SDS011;70343;51.530;5.050;2024-03-23T01:55:11;9.07;;;2.45;;
80891;SDS011;70343;51.530;5.050;2024-03-23T01:57:37;8.88;;;2.15;;
80891;SDS011;70343;51.530;5.050;2024-03-23T02:00:03;5.00;;;1.98;;
80891;SDS011;70343;51.530;5.050;2024-03-23T02:02:41;5.25;;;2.35;;
80891;SDS011;70343;51.530;5.050;2024-03-23T02:05:13;9.43;;;2.50;;
80891;SDS011;70343;51.530;5.050;2024-03-23T02:07:40;8.18;;;2.13;;
80891;SDS011;70343;51.530;5.050;2024-03-23T02:10:06;10.35;;;2.65;;
80891;SDS011;70343;51.530;5.050;2024-03-23T02:12:32;11.30;;;2.10;;
80891;SDS011;70343;51.530;5.050;2024-03-23T02:14:58;4.85;;;2.00;;
80891;SDS011;70343;51.530;5.050;2024-03-23T02:17:24;12.80;;;2.45;;
80891;SDS011;70343;51.530;5.050;2024-03-23T02:19:50;8.38;;;2.53;;
80891;SDS011;70343;51.530;5.050;2024-03-23T02:22:15;6.85;;;1.92;;
80891;SDS011;70343;51.530;5.050;2024-03-23T02:24:41;11.98;;;2.60;;
80891;SDS011;70343;51.530;5.050;2024-03-23T02:27:07;6.97;;;2.00;;
80891;SDS011;70343;51.530;5.050;2024-03-23T02:29:33;6.80;;;1.95;;
80891;SDS011;70343;51.530;5.050;2024-03-23T02:31:59;16.15;;;3.47;;
80891;SDS011;70343;51.530;5.050;2024-03-23T02:34:24;4.60;;;1.50;;
80891;SDS011;70343;51.530;5.050;2024-03-23T02:36:50;6.57;;;2.20;;
80891;SDS011;70343;51.530;5.050;2024-03-23T02:39:15;10.43;;;2.28;;
80891;SDS011;70343;51.530;5.050;2024-03-23T02:41:41;5.85;;;1.80;;
80891;SDS011;70343;51.530;5.050;2024-03-23T02:44:06;6.85;;;2.38;;
80891;SDS011;70343;51.530;5.050;2024-03-23T02:46:33;7.50;;;1.63;;
80891;SDS011;70343;51.530;5.050;2024-03-23T02:48:58;7.78;;;1.48;;
80891;SDS011;70343;51.530;5.050;2024-03-23T02:51:23;7.85;;;2.47;;
80891;SDS011;70343;51.530;5.050;2024-03-23T02:53:49;11.63;;;2.15;;
80891;SDS011;70343;51.530;5.050;2024-03-23T02:56:14;8.55;;;2.55;;
80891;SDS011;70343;51.530;5.050;2024-03-23T02:58:42;10.27;;;2.65;;
80891;SDS011;70343;51.530;5.050;2024-03-23T03:01:08;10.07;;;2.22;;
80891;SDS011;70343;51.530;5.050;2024-03-23T03:03:33;8.13;;;1.73;;
80891;SDS011;70343;51.530;5.050;2024-03-23T03:05:59;7.45;;;2.10;;
80891;SDS011;70343;51.530;5.050;2024-03-23T03:08:24;6.40;;;2.35;;
80891;SDS011;70343;51.530;5.050;2024-03-23T03:10:50;9.00;;;1.98;;
80891;SDS011;70343;51.530;5.050;2024-03-23T03:13:16;7.55;;;1.60;;
80891;SDS011;70343;51.530;5.050;2024-03-23T03:15:43;5.50;;;1.83;;
80891;SDS011;70343;51.530;5.050;2024-03-23T03:18:08;11.27;;;1.90;;
80891;SDS011;70343;51.530;5.050;2024-03-23T03:20:36;8.65;;;2.22;;
80891;SDS011;70343;51.530;5.050;2024-03-23T03:23:04;5.03;;;1.60;;
80891;SDS011;70343;51.530;5.050;2024-03-23T03:25:30;7.90;;;1.85;;
80891;SDS011;70343;51.530;5.050;2024-03-23T03:27:55;6.47;;;1.90;;
80891;SDS011;70343;51.530;5.050;2024-03-23T03:30:21;5.20;;;1.75;;
80891;SDS011;70343;51.530;5.050;2024-03-23T03:32:46;9.15;;;2.08;;
80891;SDS011;70343;51.530;5.050;2024-03-23T03:35:12;10.45;;;2.33;;
80891;SDS011;70343;51.530;5.050;2024-03-23T03:37:37;6.88;;;2.00;;
80891;SDS011;70343;51.530;5.050;2024-03-23T03:40:03;5.93;;;2.30;;
80891;SDS011;70343;51.530;5.050;2024-03-23T03:42:28;8.43;;;2.10;;
80891;SDS011;70343;51.530;5.050;2024-03-23T03:44:54;10.23;;;2.40;;
80891;SDS011;70343;51.530;5.050;2024-03-23T03:47:19;5.20;;;1.90;;
80891;SDS011;70343;51.530;5.050;2024-03-23T03:49:45;5.65;;;2.03;;
80891;SDS011;70343;51.530;5.050;2024-03-23T03:52:10;10.32;;;2.85;;
80891;SDS011;70343;51.530;5.050;2024-03-23T03:54:36;7.72;;;2.47;;
80891;SDS011;70343;51.530;5.050;2024-03-23T03:57:01;5.65;;;2.72;;
80891;SDS011;70343;51.530;5.050;2024-03-23T03:59:27;8.43;;;2.55;;
80891;SDS011;70343;51.530;5.050;2024-03-23T04:01:52;10.02;;;2.20;;
80891;SDS011;70343;51.530;5.050;2024-03-23T04:04:18;7.18;;;2.28;;
80891;SDS011;70343;51.530;5.050;2024-03-23T04:06:43;8.32;;;3.28;;
80891;SDS011;70343;51.530;5.050;2024-03-23T04:09:09;11.40;;;2.83;;
80891;SDS011;70343;51.530;5.050;2024-03-23T04:11:35;12.88;;;2.65;;
80891;SDS011;70343;51.530;5.050;2024-03-23T04:14:00;7.18;;;3.00;;
80891;SDS011;70343;51.530;5.050;2024-03-23T04:16:33;9.00;;;2.58;;
80891;SDS011;70343;51.530;5.050;2024-03-23T04:18:59;10.82;;;2.75;;
80891;SDS011;70343;51.530;5.050;2024-03-23T04:21:25;14.05;;;3.33;;
80891;SDS011;70343;51.530;5.050;2024-03-23T04:23:50;11.27;;;3.75;;
80891;SDS011;70343;51.530;5.050;2024-03-23T04:26:16;10.50;;;3.13;;
80891;SDS011;70343;51.530;5.050;2024-03-23T04:28:41;10.13;;;3.28;;
80891;SDS011;70343;51.530;5.050;2024-03-23T04:31:08;9.10;;;3.67;;
80891;SDS011;70343;51.530;5.050;2024-03-23T04:33:33;7.68;;;3.47;;
80891;SDS011;70343;51.530;5.050;2024-03-23T04:35:59;8.52;;;3.25;;
80891;SDS011;70343;51.530;5.050;2024-03-23T04:38:24;6.90;;;3.22;;
80891;SDS011;70343;51.530;5.050;2024-03-23T04:40:56;11.18;;;3.28;;
80891;SDS011;70343;51.530;5.050;2024-03-23T04:43:22;15.32;;;3.67;;
80891;SDS011;70343;51.530;5.050;2024-03-23T04:45:48;14.80;;;4.40;;
80891;SDS011;70343;51.530;5.050;2024-03-23T04:48:14;9.85;;;3.45;;
80891;SDS011;70343;51.530;5.050;2024-03-23T04:50:39;11.50;;;4.63;;
80891;SDS011;70343;51.530;5.050;2024-03-23T04:53:06;15.38;;;5.15;;
80891;SDS011;70343;51.530;5.050;2024-03-23T04:55:32;8.85;;;4.57;;
80891;SDS011;70343;51.530;5.050;2024-03-23T04:57:57;11.68;;;4.13;;
80891;SDS011;70343;51.530;5.050;2024-03-23T05:00:23;10.32;;;4.22;;
80891;SDS011;70343;51.530;5.050;2024-03-23T05:02:48;14.20;;;5.40;;
80891;SDS011;70343;51.530;5.050;2024-03-23T05:05:14;9.18;;;5.05;;
80891;SDS011;70343;51.530;5.050;2024-03-23T05:07:39;9.85;;;4.57;;
80891;SDS011;70343;51.530;5.050;2024-03-23T05:10:07;10.18;;;5.05;;
80891;SDS011;70343;51.530;5.050;2024-03-23T05:12:36;12.07;;;5.03;;
80891;SDS011;70343;51.530;5.050;2024-03-23T05:15:03;10.20;;;4.82;;
80891;SDS011;70343;51.530;5.050;2024-03-23T05:17:30;10.10;;;3.95;;
80891;SDS011;70343;51.530;5.050;2024-03-23T05:19:56;9.77;;;4.35;;
80891;SDS011;70343;51.530;5.050;2024-03-23T05:22:22;10.32;;;4.47;;
80891;SDS011;70343;51.530;5.050;2024-03-23T05:24:47;7.05;;;3.35;;
80891;SDS011;70343;51.530;5.050;2024-03-23T05:27:13;10.18;;;3.92;;
80891;SDS011;70343;51.530;5.050;2024-03-23T05:29:38;9.40;;;3.88;;
80891;SDS011;70343;51.530;5.050;2024-03-23T05:32:04;8.98;;;3.88;;
80891;SDS011;70343;51.530;5.050;2024-03-23T05:34:29;10.63;;;3.80;;
80891;SDS011;70343;51.530;5.050;2024-03-23T05:36:55;10.77;;;3.55;;
80891;SDS011;70343;51.530;5.050;2024-03-23T05:39:20;9.93;;;3.47;;
80891;SDS011;70343;51.530;5.050;2024-03-23T05:41:47;9.40;;;3.28;;
80891;SDS011;70343;51.530;5.050;2024-03-23T05:44:13;9.10;;;3.80;;
80891;SDS011;70343;51.530;5.050;2024-03-23T05:46:40;9.30;;;3.03;;
80891;SDS011;70343;51.530;5.050;2024-03-23T05:49:05;9.15;;;3.03;;
80891;SDS011;70343;51.530;5.050;2024-03-23T05:51:31;13.43;;;3.53;;
80891;SDS011;70343;51.530;5.050;2024-03-23T05:53:56;8.00;;;3.15;;
80891;SDS011;70343;51.530;5.050;2024-03-23T05:56:22;10.27;;;3.78;;
80891;SDS011;70343;51.530;5.050;2024-03-23T05:58:47;5.80;;;2.72;;
80891;SDS011;70343;51.530;5.050;2024-03-23T06:01:13;9.50;;;3.55;;
80891;SDS011;70343;51.530;5.050;2024-03-23T06:03:39;10.98;;;3.05;;
80891;SDS011;70343;51.530;5.050;2024-03-23T06:06:04;7.47;;;2.65;;
80891;SDS011;70343;51.530;5.050;2024-03-23T06:08:35;9.95;;;3.15;;
80891;SDS011;70343;51.530;5.050;2024-03-23T06:11:01;6.20;;;2.22;;
80891;SDS011;70343;51.530;5.050;2024-03-23T06:13:26;6.18;;;2.28;;
80891;SDS011;70343;51.530;5.050;2024-03-23T06:15:55;13.77;;;2.53;;
80891;SDS011;70343;51.530;5.050;2024-03-23T06:18:20;5.55;;;1.67;;
80891;SDS011;70343;51.530;5.050;2024-03-23T06:20:46;5.30;;;1.83;;
80891;SDS011;70343;51.530;5.050;2024-03-23T06:23:11;7.50;;;2.25;;
80891;SDS011;70343;51.530;5.050;2024-03-23T06:25:38;8.45;;;2.05;;
80891;SDS011;70343;51.530;5.050;2024-03-23T06:28:03;5.32;;;1.33;;
80891;SDS011;70343;51.530;5.050;2024-03-23T06:30:29;6.25;;;2.03;;
80891;SDS011;70343;51.530;5.050;2024-03-23T06:32:56;9.00;;;1.88;;
80891;SDS011;70343;51.530;5.050;2024-03-23T06:35:22;5.30;;;1.65;;
80891;SDS011;70343;51.530;5.050;2024-03-23T06:37:47;5.55;;;2.10;;
80891;SDS011;70343;51.530;5.050;2024-03-23T06:40:13;11.45;;;2.30;;
80891;SDS011;70343;51.530;5.050;2024-03-23T06:42:38;5.93;;;1.40;;
80891;SDS011;70343;51.530;5.050;2024-03-23T06:45:05;4.55;;;1.67;;
80891;SDS011;70343;51.530;5.050;2024-03-23T06:47:31;6.18;;;1.90;;
80891;SDS011;70343;51.530;5.050;2024-03-23T06:49:56;6.32;;;1.77;;
80891;SDS011;70343;51.530;5.050;2024-03-23T06:52:22;12.32;;;2.15;;
80891;SDS011;70343;51.530;5.050;2024-03-23T06:54:48;6.00;;;1.75;;
80891;SDS011;70343;51.530;5.050;2024-03-23T06:57:13;10.77;;;2.75;;
80891;SDS011;70343;51.530;5.050;2024-03-23T06:59:38;4.97;;;1.60;;
80891;SDS011;70343;51.530;5.050;2024-03-23T07:02:05;10.48;;;2.75;;
80891;SDS011;70343;51.530;5.050;2024-03-23T07:06:58;10.50;;;2.05;;
80891;SDS011;70343;51.530;5.050;2024-03-23T07:09:24;6.70;;;1.73;;
80891;SDS011;70343;51.530;5.050;2024-03-23T07:11:53;5.60;;;2.00;;
80891;SDS011;70343;51.530;5.050;2024-03-23T07:14:19;5.45;;;1.75;;
80891;SDS011;70343;51.530;5.050;2024-03-23T07:16:45;8.05;;;2.25;;
80891;SDS011;70343;51.530;5.050;2024-03-23T07:19:10;8.43;;;1.73;;
80891;SDS011;70343;51.530;5.050;2024-03-23T07:21:35;9.43;;;2.30;;
80891;SDS011;70343;51.530;5.050;2024-03-23T07:24:01;5.25;;;1.50;;
80891;SDS011;70343;51.530;5.050;2024-03-23T07:26:26;9.10;;;2.00;;
80891;SDS011;70343;51.530;5.050;2024-03-23T07:28:52;6.80;;;2.25;;
80891;SDS011;70343;51.530;5.050;2024-03-23T07:31:18;8.63;;;1.75;;
80891;SDS011;70343;51.530;5.050;2024-03-23T07:36:10;5.15;;;2.22;;
80891;SDS011;70343;51.530;5.050;2024-03-23T07:38:36;6.20;;;1.80;;
80891;SDS011;70343;51.530;5.050;2024-03-23T07:41:02;5.75;;;2.05;;
80891;SDS011;70343;51.530;5.050;2024-03-23T07:43:29;5.18;;;2.20;;
80891;SDS011;70343;51.530;5.050;2024-03-23T07:45:54;3.88;;;1.30;;
80891;SDS011;70343;51.530;5.050;2024-03-23T07:48:21;3.30;;;1.35;;
80891;SDS011;70343;51.530;5.050;2024-03-23T07:53:22;4.90;;;1.13;;
80891;SDS011;70343;51.530;5.050;2024-03-23T07:55:54;2.47;;;1.00;;
80891;SDS011;70343;51.530;5.050;2024-03-23T07:58:20;3.60;;;0.98;;
80891;SDS011;70343;51.530;5.050;2024-03-23T08:00:46;2.45;;;1.13;;
80891;SDS011;70343;51.530;5.050;2024-03-23T08:03:11;5.95;;;1.13;;
80891;SDS011;70343;51.530;5.050;2024-03-23T08:05:37;6.32;;;1.80;;
80891;SDS011;70343;51.530;5.050;2024-03-23T08:08:02;4.63;;;1.13;;
80891;SDS011;70343;51.530;5.050;2024-03-23T08:10:28;5.95;;;1.30;;
80891;SDS011;70343;51.530;5.050;2024-03-23T08:12:53;3.17;;;1.13;;
80891;SDS011;70343;51.530;5.050;2024-03-23T08:15:19;3.75;;;1.35;;
80891;SDS011;70343;51.530;5.050;2024-03-23T08:17:44;5.25;;;1.70;;
80891;SDS011;70343;51.530;5.050;2024-03-23T08:20:10;5.10;;;1.02;;
80891;SDS011;70343;51.530;5.050;2024-03-23T08:22:35;7.88;;;1.45;;
80891;SDS011;70343;51.530;5.050;2024-03-23T08:25:01;5.95;;;1.25;;
80891;SDS011;70343;51.530;5.050;2024-03-23T08:27:26;7.40;;;0.90;;
80891;SDS011;70343;51.530;5.050;2024-03-23T08:29:52;4.63;;;0.93;;
80891;SDS011;70343;51.530;5.050;2024-03-23T08:32:17;3.65;;;0.40;;
80891;SDS011;70343;51.530;5.050;2024-03-23T08:34:43;4.55;;;1.00;;
80891;SDS011;70343;51.530;5.050;2024-03-23T08:37:08;5.95;;;0.85;;
80891;SDS011;70343;51.530;5.050;2024-03-23T08:39:34;6.57;;;1.40;;
80891;SDS011;70343;51.530;5.050;2024-03-23T08:41:59;4.95;;;0.93;;
80891;SDS011;70343;51.530;5.050;2024-03-23T08:44:24;4.68;;;1.25;;
80891;SDS011;70343;51.530;5.050;2024-03-23T08:46:50;5.03;;;1.38;;
80891;SDS011;70343;51.530;5.050;2024-03-23T08:49:15;4.53;;;1.10;;
80891;SDS011;70343;51.530;5.050;2024-03-23T08:51:41;7.97;;;1.52;;
80891;SDS011;70343;51.530;5.050;2024-03-23T08:54:06;5.50;;;1.33;;
80891;SDS011;70343;51.530;5.050;2024-03-23T08:56:32;6.88;;;1.20;;
80891;SDS011;70343;51.530;5.050;2024-03-23T08:58:57;4.55;;;1.30;;
80891;SDS011;70343;51.530;5.050;2024-03-23T09:01:23;7.20;;;1.95;;
80891;SDS011;70343;51.530;5.050;2024-03-23T09:03:48;3.13;;;0.77;;
80891;SDS011;70343;51.530;5.050;2024-03-23T09:06:14;5.10;;;0.82;;
80891;SDS011;70343;51.530;5.050;2024-03-23T09:08:40;6.65;;;1.27;;
80891;SDS011;70343;51.530;5.050;2024-03-23T09:11:06;5.95;;;1.17;;
80891;SDS011;70343;51.530;5.050;2024-03-23T09:13:36;7.45;;;1.13;;
80891;SDS011;70343;51.530;5.050;2024-03-23T09:16:03;9.48;;;2.35;;
80891;SDS011;70343;51.530;5.050;2024-03-23T09:18:33;3.40;;;1.38;;
80891;SDS011;70343;51.530;5.050;2024-03-23T09:21:03;2.83;;;0.90;;
80891;SDS011;70343;51.530;5.050;2024-03-23T09:23:29;4.53;;;1.00;;
80891;SDS011;70343;51.530;5.050;2024-03-23T09:25:55;6.53;;;1.88;;
80891;SDS011;70343;51.530;5.050;2024-03-23T09:28:20;9.02;;;1.70;;
80891;SDS011;70343;51.530;5.050;2024-03-23T09:30:46;7.80;;;1.42;;
80891;SDS011;70343;51.530;5.050;2024-03-23T09:33:12;4.35;;;1.08;;
80891;SDS011;70343;51.530;5.050;2024-03-23T09:35:41;6.90;;;1.10;;
80891;SDS011;70343;51.530;5.050;2024-03-23T09:38:07;5.72;;;1.20;;
80891;SDS011;70343;51.530;5.050;2024-03-23T09:40:34;8.30;;;1.77;;
80891;SDS011;70343;51.530;5.050;2024-03-23T09:43:00;2.35;;;0.80;;
80891;SDS011;70343;51.530;5.050;2024-03-23T09:45:29;3.25;;;0.93;;
80891;SDS011;70343;51.530;5.050;2024-03-23T09:47:55;2.05;;;0.75;;
80891;SDS011;70343;51.530;5.050;2024-03-23T09:50:21;2.25;;;0.50;;
80891;SDS011;70343;51.530;5.050;2024-03-23T09:52:47;3.08;;;0.47;;
80891;SDS011;70343;51.530;5.050;2024-03-23T09:55:13;4.85;;;0.57;;
80891;SDS011;70343;51.530;5.050;2024-03-23T09:57:39;2.90;;;0.90;;
80891;SDS011;70343;51.530;5.050;2024-03-23T10:00:06;3.20;;;1.17;;
80891;SDS011;70343;51.530;5.050;2024-03-23T10:02:36;1.95;;;0.80;;
80891;SDS011;70343;51.530;5.050;2024-03-23T10:07:28;2.13;;;0.68;;
80891;SDS011;70343;51.530;5.050;2024-03-23T10:09:53;2.85;;;0.85;;
80891;SDS011;70343;51.530;5.050;2024-03-23T10:12:19;4.15;;;1.35;;
80891;SDS011;70343;51.530;5.050;2024-03-23T10:14:45;4.38;;;0.90;;
80891;SDS011;70343;51.530;5.050;2024-03-23T10:19:39;8.50;;;1.27;;
80891;SDS011;70343;51.530;5.050;2024-03-23T10:22:06;3.72;;;0.82;;
80891;SDS011;70343;51.530;5.050;2024-03-23T10:24:31;1.75;;;0.70;;
80891;SDS011;70343;51.530;5.050;2024-03-23T10:26:57;4.60;;;0.88;;
80891;SDS011;70343;51.530;5.050;2024-03-23T10:29:22;6.38;;;1.67;;
80891;SDS011;70343;51.530;5.050;2024-03-23T10:31:48;6.30;;;1.10;;
80891;SDS011;70343;51.530;5.050;2024-03-23T10:34:14;6.93;;;1.65;;
80891;SDS011;70343;51.530;5.050;2024-03-23T10:36:40;9.27;;;1.40;;
80891;SDS011;70343;51.530;5.050;2024-03-23T10:39:07;5.13;;;1.17;;
80891;SDS011;70343;51.530;5.050;2024-03-23T10:41:32;6.20;;;1.15;;
80891;SDS011;70343;51.530;5.050;2024-03-23T10:43:58;6.18;;;1.10;;
80891;SDS011;70343;51.530;5.050;2024-03-23T10:46:26;4.85;;;1.23;;
80891;SDS011;70343;51.530;5.050;2024-03-23T10:48:52;5.28;;;1.30;;
80891;SDS011;70343;51.530;5.050;2024-03-23T10:51:17;7.60;;;1.33;;
80891;SDS011;70343;51.530;5.050;2024-03-23T10:53:43;7.32;;;1.33;;
80891;SDS011;70343;51.530;5.050;2024-03-23T10:56:11;2.92;;;0.82;;
80891;SDS011;70343;51.530;5.050;2024-03-23T10:58:40;2.42;;;0.70;;
80891;SDS011;70343;51.530;5.050;2024-03-23T11:01:11;1.48;;;0.60;;
80891;SDS011;70343;51.530;5.050;2024-03-23T11:03:37;3.05;;;0.50;;
80891;SDS011;70343;51.530;5.050;2024-03-23T11:06:07;2.90;;;0.60;;
80891;SDS011;70343;51.530;5.050;2024-03-23T11:08:36;1.30;;;0.40;;
80891;SDS011;70343;51.530;5.050;2024-03-23T11:13:49;6.00;;;0.70;;
80891;SDS011;70343;51.530;5.050;2024-03-23T11:16:15;2.00;;;0.30;;
80891;SDS011;70343;51.530;5.050;2024-03-23T11:18:42;0.32;;;0.05;;
80891;SDS011;70343;51.530;5.050;2024-03-23T11:21:09;2.78;;;0.50;;
80891;SDS011;70343;51.530;5.050;2024-03-23T11:23:35;1.30;;;0.30;;
80891;SDS011;70343;51.530;5.050;2024-03-23T11:26:00;1.73;;;0.40;;
80891;SDS011;70343;51.530;5.050;2024-03-23T11:28:26;2.13;;;0.40;;
80891;SDS011;70343;51.530;5.050;2024-03-23T11:30:51;1.27;;;0.25;;
80891;SDS011;70343;51.530;5.050;2024-03-23T11:33:17;2.10;;;1.10;;
80891;SDS011;70343;51.530;5.050;2024-03-23T11:35:43;4.10;;;0.63;;
80891;SDS011;70343;51.530;5.050;2024-03-23T11:38:12;0.98;;;0.15;;
80891;SDS011;70343;51.530;5.050;2024-03-23T11:40:40;3.75;;;1.00;;
80891;SDS011;70343;51.530;5.050;2024-03-23T11:43:13;4.88;;;0.85;;
80891;SDS011;70343;51.530;5.050;2024-03-23T11:48:19;3.30;;;1.02;;
80891;SDS011;70343;51.530;5.050;2024-03-23T11:50:46;2.60;;;0.47;;
80891;SDS011;70343;51.530;5.050;2024-03-23T11:55:48;3.95;;;0.88;;
80891;SDS011;70343;51.530;5.050;2024-03-23T11:58:18;2.50;;;0.82;;
80891;SDS011;70343;51.530;5.050;2024-03-23T12:00:58;3.35;;;0.90;;
80891;SDS011;70343;51.530;5.050;2024-03-23T12:03:25;5.07;;;0.85;;
80891;SDS011;70343;51.530;5.050;2024-03-23T12:05:53;3.80;;;0.95;;
80891;SDS011;70343;51.530;5.050;2024-03-23T12:08:32;6.78;;;1.02;;
80891;SDS011;70343;51.530;5.050;2024-03-23T12:11:15;5.88;;;0.57;;
80891;SDS011;70343;51.530;5.050;2024-03-23T12:13:42;2.05;;;0.70;;
80891;SDS011;70343;51.530;5.050;2024-03-23T12:16:16;5.70;;;1.48;;
80891;SDS011;70343;51.530;5.050;2024-03-23T12:18:43;5.55;;;1.08;;
80891;SDS011;70343;51.530;5.050;2024-03-23T12:21:09;5.20;;;1.25;;
80891;SDS011;70343;51.530;5.050;2024-03-23T12:23:35;3.47;;;0.90;;
80891;SDS011;70343;51.530;5.050;2024-03-23T12:26:03;4.53;;;0.77;;
80891;SDS011;70343;51.530;5.050;2024-03-23T12:28:29;5.25;;;0.95;;
80891;SDS011;70343;51.530;5.050;2024-03-23T12:30:54;4.03;;;0.65;;
80891;SDS011;70343;51.530;5.050;2024-03-23T12:33:20;1.50;;;0.60;;
80891;SDS011;70343;51.530;5.050;2024-03-23T12:35:49;2.28;;;0.52;;
80891;SDS011;70343;51.530;5.050;2024-03-23T12:38:15;5.38;;;1.13;;
80891;SDS011;70343;51.530;5.050;2024-03-23T12:40:41;7.47;;;0.82;;
80891;SDS011;70343;51.530;5.050;2024-03-23T12:43:07;2.63;;;0.63;;
80891;SDS011;70343;51.530;5.050;2024-03-23T12:45:35;2.55;;;0.57;;
80891;SDS011;70343;51.530;5.050;2024-03-23T12:48:00;2.97;;;0.65;;
80891;SDS011;70343;51.530;5.050;2024-03-23T12:50:26;2.58;;;0.73;;
80891;SDS011;70343;51.530;5.050;2024-03-23T12:52:51;5.03;;;0.80;;
80891;SDS011;70343;51.530;5.050;2024-03-23T12:55:17;2.72;;;0.68;;
80891;SDS011;70343;51.530;5.050;2024-03-23T12:57:43;2.45;;;0.90;;
80891;SDS011;70343;51.530;5.050;2024-03-23T13:00:08;5.43;;;1.48;;
80891;SDS011;70343;51.530;5.050;2024-03-23T13:02:37;1.20;;;0.60;;
80891;SDS011;70343;51.530;5.050;2024-03-23T13:05:03;2.28;;;0.35;;
80891;SDS011;70343;51.530;5.050;2024-03-23T13:07:29;2.38;;;0.45;;
80891;SDS011;70343;51.530;5.050;2024-03-23T13:09:55;1.17;;;0.35;;
80891;SDS011;70343;51.530;5.050;2024-03-23T13:12:22;4.75;;;0.60;;
80891;SDS011;70343;51.530;5.050;2024-03-23T13:14:48;3.97;;;0.90;;
80891;SDS011;70343;51.530;5.050;2024-03-23T13:17:14;2.05;;;0.63;;
80891;SDS011;70343;51.530;5.050;2024-03-23T13:19:40;2.72;;;1.05;;
80891;SDS011;70343;51.530;5.050;2024-03-23T13:22:06;5.47;;;0.70;;
80891;SDS011;70343;51.530;5.050;2024-03-23T13:24:31;4.95;;;0.90;;
80891;SDS011;70343;51.530;5.050;2024-03-23T13:26:57;3.70;;;0.93;;
80891;SDS011;70343;51.530;5.050;2024-03-23T13:29:23;5.47;;;1.02;;
80891;SDS011;70343;51.530;5.050;2024-03-23T13:31:49;4.88;;;0.75;;
80891;SDS011;70343;51.530;5.050;2024-03-23T13:34:16;4.60;;;1.02;;
80891;SDS011;70343;51.530;5.050;2024-03-23T13:36:46;3.78;;;1.05;;
80891;SDS011;70343;51.530;5.050;2024-03-23T13:39:12;7.60;;;1.42;;
80891;SDS011;70343;51.530;5.050;2024-03-23T13:41:39;2.67;;;0.82;;
80891;SDS011;70343;51.530;5.050;2024-03-23T13:44:09;9.43;;;1.00;;
80891;SDS011;70343;51.530;5.050;2024-03-23T13:46:41;5.78;;;1.38;;
80891;SDS011;70343;51.530;5.050;2024-03-23T13:51:55;7.97;;;1.80;;
80891;SDS011;70343;51.530;5.050;2024-03-23T13:54:22;5.57;;;1.00;;
80891;SDS011;70343;51.530;5.050;2024-03-23T13:56:49;9.15;;;0.93;;
80891;SDS011;70343;51.530;5.050;2024-03-23T13:59:15;9.63;;;5.43;;
80891;SDS011;70343;51.530;5.050;2024-03-23T14:01:41;4.90;;;1.30;;
80891;SDS011;70343;51.530;5.050;2024-03-23T14:04:07;4.90;;;1.15;;
80891;SDS011;70343;51.530;5.050;2024-03-23T14:06:32;3.83;;;1.00;;
80891;SDS011;70343;51.530;5.050;2024-03-23T14:08:58;3.25;;;0.80;;
80891;SDS011;70343;51.530;5.050;2024-03-23T14:11:24;2.50;;;0.50;;
80891;SDS011;70343;51.530;5.050;2024-03-23T14:13:51;3.90;;;1.08;;
80891;SDS011;70343;51.530;5.050;2024-03-23T14:16:18;5.07;;;1.23;;
80891;SDS011;70343;51.530;5.050;2024-03-23T14:18:45;3.70;;;0.63;;
80891;SDS011;70343;51.530;5.050;2024-03-23T14:21:11;3.15;;;0.57;;
80891;SDS011;70343;51.530;5.050;2024-03-23T14:23:37;3.67;;;0.80;;
80891;SDS011;70343;51.530;5.050;2024-03-23T14:26:02;3.58;;;0.88;;
80891;SDS011;70343;51.530;5.050;2024-03-23T14:28:28;2.80;;;0.70;;
80891;SDS011;70343;51.530;5.050;2024-03-23T14:30:55;4.68;;;1.33;;
80891;SDS011;70343;51.530;5.050;2024-03-23T14:33:21;4.13;;;0.52;;
80891;SDS011;70343;51.530;5.050;2024-03-23T14:35:53;1.45;;;0.60;;
80891;SDS011;70343;51.530;5.050;2024-03-23T14:38:20;3.08;;;0.63;;
80891;SDS011;70343;51.530;5.050;2024-03-23T14:40:46;3.10;;;0.60;;
80891;SDS011;70343;51.530;5.050;2024-03-23T14:43:11;3.08;;;0.52;;
80891;SDS011;70343;51.530;5.050;2024-03-23T14:45:45;2.45;;;0.60;;
80891;SDS011;70343;51.530;5.050;2024-03-23T14:48:31;3.92;;;0.47;;
80891;SDS011;70343;51.530;5.050;2024-03-23T14:50:57;2.90;;;0.50;;
80891;SDS011;70343;51.530;5.050;2024-03-23T14:53:24;2.33;;;0.43;;
80891;SDS011;70343;51.530;5.050;2024-03-23T14:55:50;2.05;;;0.43;;
80891;SDS011;70343;51.530;5.050;2024-03-23T14:58:16;4.35;;;0.60;;
80891;SDS011;70343;51.530;5.050;2024-03-23T15:00:41;2.38;;;0.52;;
80891;SDS011;70343;51.530;5.050;2024-03-23T15:03:06;5.03;;;0.73;;
80891;SDS011;70343;51.530;5.050;2024-03-23T15:05:32;4.03;;;0.57;;
80891;SDS011;70343;51.530;5.050;2024-03-23T15:07:57;3.90;;;0.85;;
80891;SDS011;70343;51.530;5.050;2024-03-23T15:10:23;2.38;;;0.85;;
80891;SDS011;70343;51.530;5.050;2024-03-23T15:12:49;1.48;;;0.30;;
80891;SDS011;70343;51.530;5.050;2024-03-23T15:15:14;2.63;;;0.68;;
80891;SDS011;70343;51.530;5.050;2024-03-23T15:17:40;1.42;;;0.40;;
80891;SDS011;70343;51.530;5.050;2024-03-23T15:20:09;0.40;;;0.30;;
80891;SDS011;70343;51.530;5.050;2024-03-23T15:22:37;3.05;;;0.43;;
80891;SDS011;70343;51.530;5.050;2024-03-23T15:25:02;3.25;;;0.57;;
80891;SDS011;70343;51.530;5.050;2024-03-23T15:27:28;1.23;;;0.30;;
80891;SDS011;70343;51.530;5.050;2024-03-23T15:29:55;0.98;;;0.70;;
80891;SDS011;70343;51.530;5.050;2024-03-23T15:32:21;1.15;;;0.40;;
80891;SDS011;70343;51.530;5.050;2024-03-23T15:34:47;5.18;;;1.20;;
80891;SDS011;70343;51.530;5.050;2024-03-23T15:37:12;10.80;;;4.65;;
80891;SDS011;70343;51.530;5.050;2024-03-23T15:39:38;1.45;;;0.52;;
80891;SDS011;70343;51.530;5.050;2024-03-23T15:42:03;1.17;;;0.20;;
80891;SDS011;70343;51.530;5.050;2024-03-23T15:44:29;0.60;;;0.60;;
80891;SDS011;70343;51.530;5.050;2024-03-23T15:46:55;2.55;;;0.90;;
80891;SDS011;70343;51.530;5.050;2024-03-23T15:49:20;2.17;;;0.43;;
80891;SDS011;70343;51.530;5.050;2024-03-23T15:51:45;1.23;;;0.50;;
80891;SDS011;70343;51.530;5.050;2024-03-23T15:54:11;1.15;;;0.30;;
80891;SDS011;70343;51.530;5.050;2024-03-23T15:56:37;2.42;;;0.57;;
80891;SDS011;70343;51.530;5.050;2024-03-23T15:59:02;2.90;;;1.48;;